Time;durP1;ratioP1;P1;durP2;ratioP2;P2;SDS_P1;SDS_P2;PMS_P1;PMS_P2;Temp;Humidity;BMP_temperature;BMP_pressure;BME280_temperature;BME280_humidity;BME280_pressure;Samples;Min_cycle;Max_cycle;Signal;HPM_P1;HPM_P2
2022/01/17 00:01:00;;;;;;;20.50;13.90;;;3.60;91.40;;;;;;6216200;23;20186;-82
2022/01/17 00:03:38;;;;;;;25.70;14.63;;;3.70;91.20;;;;;;6199449;23;20354;-84
2022/01/17 00:06:05;;;;;;;23.47;15.00;;;3.80;91.20;;;;;;6189372;23;20178;-82
2022/01/17 00:08:33;;;;;;;21.60;14.00;;;4.00;91.10;;;;;;6215648;23;20204;-82
2022/01/17 00:11:00;;;;;;;22.27;14.50;;;4.20;90.40;;;;;;6216467;23;20170;-82
2022/01/17 00:13:28;;;;;;;17.50;12.60;;;4.20;90.60;;;;;;6214767;23;20715;-81
2022/01/17 00:16:03;;;;;;;21.50;13.23;;;4.10;88.50;;;;;;6190640;23;20170;-83
2022/01/17 00:19:03;;;;;;;21.83;13.90;;;4.00;88.30;;;;;;6213589;23;20595;-82
2022/01/17 00:21:28;;;;;;;17.03;12.10;;;4.10;88.40;;;;;;6213821;23;20185;-82
2022/01/17 00:24:08;;;;;;;19.20;13.30;;;4.00;88.40;;;;;;6214671;23;20649;-82
2022/01/17 00:26:35;;;;;;;19.00;12.40;;;3.80;88.20;;;;;;6215817;23;20162;-82
2022/01/17 00:29:02;;;;;;;21.70;12.70;;;3.80;88.20;;;;;;6214833;23;20198;-82
2022/01/17 00:31:30;;;;;;;21.57;14.33;;;3.60;88.10;;;;;;6216204;23;20180;-82
2022/01/17 00:33:57;;;;;;;19.63;13.33;;;3.50;90.40;;;;;;6214108;23;20536;-82
2022/01/17 00:36:24;;;;;;;20.20;12.77;;;3.60;90.30;;;;;;6215595;23;20253;-82
2022/01/17 00:38:51;;;;;;;17.43;12.30;;;3.70;88.20;;;;;;6214045;23;20285;-82
2022/01/17 00:41:21;;;;;;;18.37;12.13;;;3.70;88.20;;;;;;6215367;23;20170;-82
2022/01/17 00:43:48;;;;;;;20.73;12.83;;;3.50;88.00;;;;;;6216473;23;20661;-81
2022/01/17 00:46:26;;;;;;;17.33;11.90;;;3.40;89.70;;;;;;6193437;23;20212;-82
2022/01/17 00:48:54;;;;;;;17.27;11.73;;;3.40;88.00;;;;;;6215296;23;20285;-82
2022/01/17 00:51:21;;;;;;;18.53;12.63;;;3.40;88.00;;;;;;6215746;23;20188;-82
2022/01/17 00:53:49;;;;;;;20.23;12.53;;;3.50;88.00;;;;;;6213753;23;20205;-81
2022/01/17 00:56:16;;;;;;;17.20;11.37;;;3.50;86.90;;;;;;6215313;23;20253;-81
2022/01/17 00:58:43;;;;;;;20.07;11.43;;;3.60;85.60;;;;;;6214285;23;20204;-82
2022/01/17 01:01:10;;;;;;;19.63;12.07;;;3.50;84.60;;;;;;6214960;23;20184;-82
2022/01/17 01:03:37;;;;;;;16.73;11.30;;;3.40;85.10;;;;;;6214291;23;20202;-82
2022/01/17 01:06:06;;;;;;;17.57;11.80;;;3.40;85.10;;;;;;6215090;23;20170;-81
2022/01/17 01:08:33;;;;;;;18.17;11.30;;;3.50;84.60;;;;;;6216502;23;20273;-82
2022/01/17 01:11:00;;;;;;;17.73;11.80;;;3.40;85.40;;;;;;6216143;23;20205;-82
2022/01/17 01:13:30;;;;;;;17.37;11.53;;;3.50;84.20;;;;;;6215348;23;20665;-82
2022/01/17 01:16:21;;;;;;;17.83;11.50;;;3.50;83.50;;;;;;6215471;23;20236;-83
2022/01/17 01:22:00;;;;;;;16.63;10.80;;;3.30;84.00;;;;;;6212427;23;20178;-83
2022/01/17 01:30:01;;;;;;;14.57;9.97;;;3.40;83.50;;;;;;6213181;23;20316;-81
2022/01/17 01:32:35;;;;;;;14.10;10.23;;;3.50;83.10;;;;;;6214342;23;20561;-81
2022/01/17 01:35:08;;;;;;;15.60;9.90;;;3.60;82.50;;;;;;6214055;23;20169;-83
2022/01/17 01:37:36;;;;;;;16.17;10.47;;;3.60;80.90;;;;;;6214297;23;20511;-83
2022/01/17 01:40:04;;;;;;;14.47;9.90;;;3.50;82.00;;;;;;6214657;23;20174;-82
2022/01/17 01:42:33;;;;;;;13.17;9.53;;;3.60;80.40;;;;;;6213892;23;20286;-82
2022/01/17 01:45:01;;;;;;;14.00;9.37;;;3.50;81.40;;;;;;6217760;23;20193;-81
2022/01/17 01:47:29;;;;;;;14.97;9.83;;;3.50;81.00;;;;;;6217320;23;20245;-82
2022/01/17 01:49:56;;;;;;;13.67;8.87;;;3.80;79.30;;;;;;6218695;23;20562;-86
2022/01/17 01:52:23;;;;;;;14.37;9.07;;;3.80;79.80;;;;;;6217890;23;20209;-81
2022/01/17 01:54:51;;;;;;;14.80;9.80;;;3.90;78.70;;;;;;6218053;23;20261;-84
2022/01/17 01:57:19;;;;;;;13.90;9.20;;;3.90;78.50;;;;;;6217472;23;20174;-82
2022/01/17 01:59:46;;;;;;;13.60;8.63;;;3.90;78.30;;;;;;6218792;23;20236;-81
2022/01/17 02:02:14;;;;;;;14.17;8.43;;;3.80;78.70;;;;;;6217550;23;20257;-81
2022/01/17 02:04:43;;;;;;;14.07;8.57;;;3.70;79.70;;;;;;6218486;23;20204;-81
2022/01/17 02:07:11;;;;;;;12.00;8.53;;;3.80;80.20;;;;;;6218063;23;20181;-81
2022/01/17 02:09:38;;;;;;;11.77;8.07;;;3.70;79.20;;;;;;6218496;23;20182;-81
2022/01/17 02:12:09;;;;;;;11.60;8.03;;;3.60;79.50;;;;;;6219294;23;20174;-90
2022/01/17 02:14:36;;;;;;;11.93;7.67;;;3.60;79.40;;;;;;6216519;23;20545;-84
2022/01/17 02:17:04;;;;;;;11.60;7.43;;;3.80;78.60;;;;;;6191411;23;20193;-84
2022/01/17 02:19:32;;;;;;;12.33;7.43;;;3.70;78.20;;;;;;6218716;23;20190;-81
2022/01/17 02:22:01;;;;;;;10.63;6.77;;;3.70;77.70;;;;;;6219011;23;20177;-83
2022/01/17 02:24:27;;;;;;;10.37;7.40;;;3.60;77.10;;;;;;6217065;23;20450;-81
2022/01/17 02:26:54;;;;;;;9.50;6.90;;;3.70;77.40;;;;;;6219111;23;20253;-87
2022/01/17 02:29:21;;;;;;;8.93;6.53;;;3.70;76.70;;;;;;6218484;23;20288;-81
2022/01/17 02:31:49;;;;;;;8.67;6.63;;;3.80;75.80;;;;;;6219956;23;20181;-81
2022/01/17 02:34:16;;;;;;;10.03;6.67;;;3.70;76.00;;;;;;6218588;23;20209;-85
2022/01/17 02:36:46;;;;;;;8.33;6.57;;;3.80;75.00;;;;;;6220934;23;20200;-81
2022/01/17 02:39:15;;;;;;;9.57;6.40;;;3.70;76.20;;;;;;6221481;23;20364;-83
2022/01/17 02:41:46;;;;;;;10.03;6.50;;;3.70;76.30;;;;;;6221634;23;20238;-84
2022/01/17 02:44:14;;;;;;;9.47;6.30;;;3.70;76.70;;;;;;6220613;23;20232;-81
2022/01/17 02:46:41;;;;;;;8.67;5.77;;;3.70;75.60;;;;;;6221754;23;20209;-81
2022/01/17 02:49:08;;;;;;;8.43;6.33;;;3.80;76.00;;;;;;6221118;23;20252;-83
2022/01/17 02:51:35;;;;;;;7.77;5.57;;;3.70;76.70;;;;;;6222773;23;20178;-81
2022/01/17 02:54:03;;;;;;;8.43;5.73;;;3.70;77.00;;;;;;6222896;23;20212;-81
2022/01/17 02:56:31;;;;;;;7.77;5.67;;;3.70;77.80;;;;;;6222907;23;20173;-82
2022/01/17 02:58:58;;;;;;;9.43;6.17;;;3.60;78.50;;;;;;6222897;23;20252;-81
2022/01/17 03:01:28;;;;;;;10.47;6.00;;;3.70;79.00;;;;;;6223460;23;20185;-81
2022/01/17 03:03:56;;;;;;;8.30;6.13;;;3.70;79.70;;;;;;6217795;23;20289;-82
2022/01/17 03:06:23;;;;;;;8.00;5.73;;;3.70;79.70;;;;;;6219452;23;20261;-82
2022/01/17 03:08:51;;;;;;;8.60;5.97;;;3.80;79.70;;;;;;6217954;23;20276;-81
2022/01/17 03:11:21;;;;;;;9.07;6.10;;;3.60;80.00;;;;;;6218394;23;20185;-82
2022/01/17 03:13:50;;;;;;;8.70;5.90;;;3.60;82.00;;;;;;6217894;23;20521;-82
2022/01/17 03:16:21;;;;;;;8.50;5.93;;;3.50;81.40;;;;;;6218981;23;20505;-81
2022/01/17 03:18:51;;;;;;;9.30;6.30;;;3.40;82.50;;;;;;6193723;23;20748;-81
2022/01/17 03:21:20;;;;;;;8.13;5.97;;;3.50;81.70;;;;;;6219560;23;20170;-81
2022/01/17 03:23:49;;;;;;;9.53;5.83;;;3.50;81.30;;;;;;6220244;23;20206;-84
2022/01/17 03:26:16;;;;;;;8.07;5.67;;;3.50;82.70;;;;;;6221642;23;20204;-81
2022/01/17 03:28:43;;;;;;;9.37;6.30;;;3.40;82.30;;;;;;6217751;23;20208;-81
2022/01/17 03:31:12;;;;;;;9.13;6.37;;;3.40;82.20;;;;;;6217461;23;20629;-90
2022/01/17 03:33:39;;;;;;;8.07;6.03;;;3.30;82.80;;;;;;6216212;23;20273;-82
2022/01/17 03:36:07;;;;;;;8.37;6.33;;;3.30;84.00;;;;;;6215752;23;20632;-81
2022/01/17 03:38:35;;;;;;;8.77;5.93;;;3.20;84.70;;;;;;6215549;23;20213;-83
2022/01/17 03:41:03;;;;;;;9.00;6.47;;;3.20;84.80;;;;;;6216780;23;20252;-82
2022/01/17 03:43:31;;;;;;;8.23;6.00;;;3.20;85.00;;;;;;6214643;23;20206;-86
2022/01/17 03:45:58;;;;;;;8.97;6.10;;;3.20;84.70;;;;;;6215503;23;20170;-82
2022/01/17 03:48:28;;;;;;;11.00;6.47;;;3.20;85.80;;;;;;6215201;23;20272;-83
2022/01/17 03:50:55;;;;;;;9.27;6.47;;;3.20;86.40;;;;;;6215121;23;20174;-83
2022/01/17 03:53:23;;;;;;;9.20;5.97;;;3.20;86.30;;;;;;6215335;23;20252;-84
2022/01/17 03:55:50;;;;;;;8.17;6.13;;;3.30;86.10;;;;;;6214942;23;20209;-85
2022/01/17 03:58:17;;;;;;;9.03;6.80;;;3.10;87.80;;;;;;6214628;23;20201;-82
2022/01/17 04:00:47;;;;;;;7.37;5.67;;;3.20;87.80;;;;;;6215951;23;20213;-82
2022/01/17 04:03:14;;;;;;;8.53;6.13;;;3.20;87.80;;;;;;6216201;23;20225;-81
2022/01/17 04:05:43;;;;;;;11.30;6.43;;;3.20;87.90;;;;;;6217514;23;20201;-84
2022/01/17 04:08:10;;;;;;;9.13;6.37;;;3.30;88.40;;;;;;6215882;23;20948;-81
2022/01/17 04:10:37;;;;;;;7.80;5.73;;;3.30;88.70;;;;;;6217191;23;20174;-81
2022/01/17 04:13:04;;;;;;;8.67;5.97;;;3.20;89.50;;;;;;6217165;23;21066;-82
2022/01/17 04:15:32;;;;;;;8.37;6.20;;;3.30;89.80;;;;;;6216782;23;20476;-81
2022/01/17 04:18:00;;;;;;;8.73;6.23;;;3.30;90.20;;;;;;6216413;23;20211;-82
2022/01/17 04:20:28;;;;;;;8.43;6.10;;;3.30;89.70;;;;;;6217739;23;20184;-83
2022/01/17 04:22:58;;;;;;;8.37;5.87;;;3.20;90.60;;;;;;6216443;23;20216;-84
2022/01/17 04:25:29;;;;;;;8.70;6.20;;;3.20;90.60;;;;;;6216403;23;20223;-86
2022/01/17 04:27:56;;;;;;;8.27;6.03;;;3.10;90.90;;;;;;6216949;23;20202;-83
2022/01/17 04:30:24;;;;;;;10.37;6.50;;;3.10;90.90;;;;;;6216239;23;20213;-85
2022/01/17 04:32:51;;;;;;;9.00;6.33;;;3.20;91.20;;;;;;6217057;23;20532;-86
2022/01/17 04:35:21;;;;;;;9.03;5.97;;;3.30;90.80;;;;;;6217183;23;20181;-83
2022/01/17 04:37:50;;;;;;;9.10;6.23;;;3.30;90.70;;;;;;6218156;23;20197;-83
2022/01/17 04:40:19;;;;;;;7.77;5.63;;;3.40;90.30;;;;;;6220278;23;20225;-82
2022/01/17 04:42:48;;;;;;;12.50;6.57;;;3.40;90.60;;;;;;6216014;23;20523;-85
2022/01/17 04:45:18;;;;;;;8.57;6.17;;;3.50;90.30;;;;;;6216339;23;20201;-81
2022/01/17 04:47:47;;;;;;;8.47;6.30;;;3.50;90.20;;;;;;6216542;23;20201;-82
2022/01/17 04:50:16;;;;;;;9.13;6.60;;;3.40;90.40;;;;;;6215694;23;20258;-83
2022/01/17 04:52:43;;;;;;;8.70;6.07;;;3.40;90.60;;;;;;6215456;23;20193;-83
2022/01/17 04:55:12;;;;;;;7.40;5.90;;;3.40;90.50;;;;;;6215650;23;20257;-81
2022/01/17 04:57:41;;;;;;;8.40;6.40;;;3.30;90.60;;;;;;6214141;23;20202;-82
2022/01/17 05:00:11;;;;;;;8.53;6.07;;;3.40;90.80;;;;;;6216486;23;20268;-83
2022/01/17 05:02:38;;;;;;;8.07;5.63;;;3.40;90.40;;;;;;6216297;23;20272;-82
2022/01/17 05:05:06;;;;;;;9.47;6.53;;;3.40;90.60;;;;;;6215001;23;20202;-84
2022/01/17 05:07:34;;;;;;;9.10;6.33;;;3.40;90.40;;;;;;6215130;23;20220;-88
2022/01/17 05:10:01;;;;;;;8.73;6.30;;;3.30;90.50;;;;;;6216546;23;20174;-82
2022/01/17 05:12:28;;;;;;;8.33;6.27;;;3.40;90.40;;;;;;6216980;23;20261;-82
2022/01/17 05:14:57;;;;;;;11.70;6.60;;;3.60;90.00;;;;;;6216484;23;20188;-86
2022/01/17 05:17:57;;;;;;;9.07;6.20;;;3.60;89.30;;;;;;6216564;23;20217;-83
2022/01/17 05:20:24;;;;;;;8.47;6.00;;;3.60;88.90;;;;;;6215279;23;20459;-84
2022/01/17 05:22:52;;;;;;;8.57;6.00;;;3.70;88.20;;;;;;6213356;23;20620;-84
2022/01/17 05:25:19;;;;;;;9.17;6.03;;;3.60;88.10;;;;;;6214455;23;20198;-82
2022/01/17 05:27:45;;;;;;;8.87;6.03;;;3.50;89.80;;;;;;6214854;23;20205;-83
2022/01/17 05:30:17;;;;;;;7.27;5.77;;;3.50;89.40;;;;;;6215076;23;20237;-83
2022/01/17 05:32:44;;;;;;;9.47;5.83;;;3.40;90.00;;;;;;6216025;23;20533;-81
2022/01/17 05:35:12;;;;;;;8.50;6.20;;;3.50;90.00;;;;;;6216058;23;20173;-87
2022/01/17 05:37:41;;;;;;;9.80;6.40;;;3.50;90.00;;;;;;6215188;23;20272;-81
2022/01/17 05:40:10;;;;;;;9.07;6.40;;;3.50;89.80;;;;;;6218114;23;20491;-83
2022/01/17 05:42:37;;;;;;;11.80;7.07;;;3.40;90.20;;;;;;6216484;23;20204;-81
2022/01/17 05:45:06;;;;;;;7.27;5.90;;;3.50;90.20;;;;;;6216477;23;20308;-82
2022/01/17 05:47:34;;;;;;;10.33;5.97;;;3.50;89.70;;;;;;6217128;23;20269;-83
2022/01/17 05:50:07;;;;;;;7.77;5.80;;;3.50;89.70;;;;;;6216942;23;20253;-82
2022/01/17 05:52:34;;;;;;;10.37;5.80;;;3.50;89.50;;;;;;6215203;23;20252;-83
2022/01/17 05:55:05;;;;;;;8.63;6.10;;;3.40;90.10;;;;;;6214923;23;20629;-81
2022/01/17 05:57:32;;;;;;;8.10;5.40;;;3.40;90.10;;;;;;6215205;23;21277;-81
2022/01/17 06:00:00;;;;;;;6.57;5.00;;;3.40;90.20;;;;;;6217657;23;20212;-85
2022/01/17 06:02:27;;;;;;;10.63;6.30;;;3.60;89.80;;;;;;6219667;23;20220;-82
2022/01/17 06:04:56;;;;;;;8.43;5.50;;;3.60;89.70;;;;;;6217827;23;20200;-80
2022/01/17 06:07:22;;;;;;;8.10;6.00;;;3.70;89.00;;;;;;6217874;23;20174;-81
2022/01/17 06:09:51;;;;;;;7.40;5.83;;;3.70;88.20;;;;;;6218479;23;20559;-81
2022/01/17 06:12:28;;;;;;;9.27;5.80;;;3.70;90.10;;;;;;6214640;23;20242;-82
2022/01/17 06:14:57;;;;;;;8.30;5.93;;;3.70;88.20;;;;;;6215553;23;20185;-83
2022/01/17 06:17:24;;;;;;;8.27;5.67;;;3.80;88.20;;;;;;6214635;23;20194;-82
2022/01/17 06:19:52;;;;;;;13.43;9.03;;;3.70;88.20;;;;;;6216324;23;20168;-82
2022/01/17 06:22:20;;;;;;;10.20;6.60;;;3.90;90.80;;;;;;6214720;23;20168;-83
2022/01/17 06:24:47;;;;;;;7.80;5.87;;;3.90;90.30;;;;;;6215327;23;20249;-84
2022/01/17 06:27:14;;;;;;;10.77;5.40;;;4.00;88.30;;;;;;6217138;23;20273;-81
2022/01/17 06:29:41;;;;;;;7.90;5.57;;;3.90;88.30;;;;;;6218550;23;20624;-85
2022/01/17 06:32:14;;;;;;;7.33;5.50;;;3.90;88.30;;;;;;6217227;23;20229;-87
2022/01/17 06:34:41;;;;;;;7.00;5.30;;;3.80;88.20;;;;;;6191056;23;20638;-84
2022/01/17 06:37:09;;;;;;;9.10;5.93;;;3.80;88.20;;;;;;6218943;23;20174;-87
2022/01/17 06:39:38;;;;;;;11.53;5.80;;;3.80;88.70;;;;;;6215730;23;20288;-84
2022/01/17 06:42:05;;;;;;;9.23;5.67;;;3.90;88.30;;;;;;6216242;23;20704;-83
2022/01/17 06:44:32;;;;;;;8.93;5.37;;;4.00;88.30;;;;;;6215436;23;20595;-87
2022/01/17 06:47:07;;;;;;;8.07;5.37;;;4.00;88.40;;;;;;6214316;23;20637;-84
2022/01/17 06:49:34;;;;;;;8.03;5.43;;;3.90;86.40;;;;;;6214666;23;20297;-82
2022/01/17 06:52:02;;;;;;;10.27;5.87;;;3.90;87.50;;;;;;6215501;23;20225;-82
2022/01/17 06:54:29;;;;;;;9.23;5.83;;;3.90;88.30;;;;;;6216104;23;20680;-82
2022/01/17 06:56:58;;;;;;;8.50;5.50;;;3.90;88.30;;;;;;6215147;23;20170;-80
2022/01/17 06:59:25;;;;;;;8.73;5.70;;;3.90;87.80;;;;;;6215945;23;20212;-80
2022/01/17 07:01:52;;;;;;;7.53;5.50;;;3.90;88.30;;;;;;6215339;23;20176;-81
2022/01/17 07:04:19;;;;;;;8.13;5.07;;;4.00;88.00;;;;;;6214654;23;20197;-80
2022/01/17 07:06:49;;;;;;;7.57;5.57;;;3.90;88.30;;;;;;6215099;23;20289;-81
2022/01/17 07:09:19;;;;;;;7.03;5.00;;;4.00;87.80;;;;;;6213807;23;20231;-80
2022/01/17 07:11:46;;;;;;;8.97;5.30;;;4.00;88.30;;;;;;6214947;23;20210;-83
2022/01/17 07:14:14;;;;;;;6.90;4.97;;;3.90;87.70;;;;;;6217072;23;20685;-81
2022/01/17 07:16:45;;;;;;;7.13;5.27;;;3.80;88.20;;;;;;6215496;23;20178;-87
2022/01/17 07:19:11;;;;;;;6.97;5.27;;;3.80;88.20;;;;;;6213646;23;20228;-83
2022/01/17 07:21:38;;;;;;;10.60;6.20;;;3.80;88.40;;;;;;6216987;23;20661;-83
2022/01/17 07:24:06;;;;;;;7.50;5.70;;;3.90;90.40;;;;;;6218168;23;20208;-81
2022/01/17 07:26:33;;;;;;;6.40;5.00;;;4.00;88.30;;;;;;6218326;23;20201;-82
2022/01/17 07:29:00;;;;;;;9.87;6.13;;;4.00;88.40;;;;;;6216355;23;20224;-86
2022/01/17 07:31:30;;;;;;;7.17;5.20;;;4.00;89.90;;;;;;6217725;23;20250;-83
2022/01/17 07:33:58;;;;;;;6.90;5.20;;;4.10;88.40;;;;;;6220689;23;20224;-83
2022/01/17 07:36:25;;;;;;;6.10;4.70;;;4.20;88.50;;;;;;6222444;23;20634;-84
2022/01/17 07:38:52;;;;;;;6.90;5.17;;;4.10;88.40;;;;;;6221151;23;20759;-82
2022/01/17 07:41:20;;;;;;;7.10;5.17;;;4.20;88.40;;;;;;6219875;23;20213;-81
2022/01/17 07:43:48;;;;;;;7.97;4.77;;;4.30;87.00;;;;;;6218283;23;20209;-83
2022/01/17 07:46:23;;;;;;;6.23;4.70;;;4.30;87.40;;;;;;6219563;23;20209;-84
2022/01/17 07:49:09;;;;;;;7.13;4.60;;;4.40;86.70;;;;;;6218776;23;20280;-83
2022/01/17 07:51:37;;;;;;;6.37;4.90;;;4.30;86.30;;;;;;6220612;23;20194;-81
2022/01/17 07:54:05;;;;;;;7.13;4.77;;;4.30;85.80;;;;;;6217955;23;20574;-83
2022/01/17 07:56:33;;;;;;;6.43;4.40;;;4.30;86.60;;;;;;6221044;23;20493;-85
2022/01/17 07:59:01;;;;;;;9.53;5.13;;;4.20;87.70;;;;;;6219848;23;20206;-83
2022/01/17 08:01:29;;;;;;;6.70;4.97;;;4.20;87.90;;;;;;6221005;23;20174;-82
2022/01/17 08:03:57;;;;;;;5.80;4.40;;;4.10;88.40;;;;;;6219017;23;20198;-88
2022/01/17 08:06:27;;;;;;;6.23;4.87;;;4.10;88.40;;;;;;6219331;23;20198;-82
2022/01/17 08:08:55;;;;;;;6.53;4.93;;;4.20;88.50;;;;;;6218531;23;20201;-82
2022/01/17 08:11:25;;;;;;;6.23;4.80;;;4.10;88.40;;;;;;6219147;23;20177;-82
2022/01/17 08:13:52;;;;;;;6.70;4.53;;;4.10;88.40;;;;;;6218958;23;20202;-83
2022/01/17 08:16:19;;;;;;;7.73;4.70;;;4.20;88.50;;;;;;6217175;23;20184;-81
2022/01/17 08:18:47;;;;;;;8.30;4.77;;;4.20;88.50;;;;;;6215376;23;20228;-85
2022/01/17 08:21:18;;;;;;;7.23;5.03;;;4.20;89.00;;;;;;6219053;23;20253;-84
2022/01/17 08:23:45;;;;;;;7.60;5.00;;;4.40;90.00;;;;;;6215493;23;20216;-83
2022/01/17 08:26:12;;;;;;;7.33;4.97;;;4.50;88.70;;;;;;6216483;23;20276;-83
2022/01/17 08:28:41;;;;;;;6.50;4.97;;;4.50;88.70;;;;;;6214782;23;20288;-86
2022/01/17 08:31:08;;;;;;;7.50;5.23;;;4.50;88.70;;;;;;6213967;23;20185;-87
2022/01/17 08:33:35;;;;;;;6.27;5.00;;;4.40;88.60;;;;;;6211014;23;20210;-85
2022/01/17 08:36:02;;;;;;;6.40;4.80;;;4.50;88.70;;;;;;6215151;23;20181;-84
2022/01/17 08:38:30;;;;;;;6.60;4.90;;;4.40;88.60;;;;;;6223095;23;20201;-82
2022/01/17 08:40:58;;;;;;;8.70;6.13;;;4.40;89.80;;;;;;6219417;23;20274;-82
2022/01/17 08:43:32;;;;;;;6.93;5.53;;;4.50;90.00;;;;;;6217201;23;20208;-83
2022/01/17 08:45:59;;;;;;;7.03;5.63;;;4.60;88.70;;;;;;6217440;23;20193;-82
2022/01/17 08:48:26;;;;;;;6.73;4.80;;;4.60;88.70;;;;;;6218078;23;20210;-84
2022/01/17 08:50:53;;;;;;;6.90;5.10;;;4.60;90.00;;;;;;6219022;23;20230;-82
2022/01/17 08:53:20;;;;;;;7.63;5.47;;;4.60;90.00;;;;;;6217450;23;20322;-83
2022/01/17 08:55:49;;;;;;;6.43;5.10;;;4.70;89.80;;;;;;6218551;23;20174;-84
2022/01/17 08:58:17;;;;;;;7.83;5.07;;;4.70;88.80;;;;;;6216557;23;20293;-84
2022/01/17 09:00:44;;;;;;;6.23;4.80;;;4.80;89.50;;;;;;6217882;23;20182;-82
2022/01/17 09:03:13;;;;;;;7.10;5.10;;;4.90;89.00;;;;;;6216997;23;20278;-84
2022/01/17 09:05:40;;;;;;;7.87;5.43;;;5.00;89.00;;;;;;6217745;23;20194;-85
2022/01/17 09:08:08;;;;;;;6.50;4.90;;;5.00;89.00;;;;;;6217036;23;20273;-82
2022/01/17 09:10:36;;;;;;;6.70;4.90;;;5.10;89.00;;;;;;6218262;23;20174;-82
2022/01/17 09:13:04;;;;;;;6.60;4.80;;;5.10;87.60;;;;;;6217087;23;20206;-83
2022/01/17 09:15:31;;;;;;;7.83;5.07;;;5.00;89.00;;;;;;6218293;23;20260;-82
2022/01/17 09:17:59;;;;;;;8.17;5.03;;;4.90;89.00;;;;;;6217745;23;20220;-82
2022/01/17 09:20:26;;;;;;;7.23;5.00;;;4.90;88.90;;;;;;6218060;23;20174;-82
2022/01/17 09:22:54;;;;;;;6.90;4.90;;;4.90;88.90;;;;;;6218822;23;20257;-82
2022/01/17 09:25:21;;;;;;;9.37;5.13;;;5.00;89.00;;;;;;6218781;23;20497;-82
2022/01/17 09:27:48;;;;;;;6.80;5.13;;;5.00;89.00;;;;;;6219441;23;20289;-82
2022/01/17 09:30:17;;;;;;;6.50;4.77;;;5.10;89.00;;;;;;6219544;23;20190;-82
2022/01/17 09:32:45;;;;;;;7.10;5.10;;;5.10;87.80;;;;;;6218782;23;20228;-83
2022/01/17 09:35:13;;;;;;;9.63;5.10;;;5.20;88.60;;;;;;6220179;23;20256;-83
2022/01/17 09:37:41;;;;;;;6.90;5.20;;;5.30;87.00;;;;;;6220277;23;20197;-83
2022/01/17 09:40:10;;;;;;;7.17;5.00;;;5.40;87.80;;;;;;6220421;23;20216;-81
2022/01/17 09:42:38;;;;;;;7.67;5.33;;;5.40;88.30;;;;;;6220875;23;20661;-84
2022/01/17 09:45:06;;;;;;;6.27;4.70;;;5.50;85.50;;;;;;6225539;23;20238;-85
2022/01/17 09:47:36;;;;;;;6.90;5.30;;;5.70;84.10;;;;;;6220837;23;20194;-84
2022/01/17 09:50:06;;;;;;;6.13;4.90;;;5.80;83.20;;;;;;6218360;23;20170;-84
2022/01/17 09:52:37;;;;;;;6.90;4.93;;;5.70;83.00;;;;;;6217533;23;20277;-84
2022/01/17 09:55:09;;;;;;;5.83;4.70;;;5.60;83.30;;;;;;6217303;23;20162;-85
2022/01/17 09:57:42;;;;;;;6.40;4.77;;;5.50;83.30;;;;;;6217441;23;20166;-86
2022/01/17 10:00:11;;;;;;;8.13;5.00;;;5.50;83.50;;;;;;6217389;23;20189;-84
2022/01/17 10:02:40;;;;;;;7.27;5.00;;;5.60;84.00;;;;;;6217026;23;20545;-84
2022/01/17 10:05:08;;;;;;;7.60;5.00;;;5.50;83.90;;;;;;6217877;23;20174;-83
2022/01/17 10:08:05;;;;;;;7.30;4.63;;;5.50;84.10;;;;;;6215845;23;20653;-83
2022/01/17 10:10:38;;;;;;;6.30;4.50;;;5.50;83.90;;;;;;6096070;23;20188;-84
2022/01/17 10:13:07;;;;;;;6.30;4.70;;;5.70;83.10;;;;;;6195289;23;20285;-84
2022/01/17 10:15:45;;;;;;;7.83;5.00;;;5.80;83.10;;;;;;6217673;23;20180;-87
2022/01/17 10:18:32;;;;;;;7.90;4.30;;;5.90;81.10;;;;;;6218320;23;20515;-84
2022/01/17 10:21:03;;;;;;;8.63;4.70;;;5.90;81.60;;;;;;6217469;23;20189;-91
2022/01/17 10:26:26;;;;;;;9.03;4.67;;;5.90;82.20;;;;;;6213600;23;20838;-85
2022/01/17 10:37:12;;;;;;;7.27;4.50;;;6.00;81.80;;;;;;6218945;23;20169;-83
2022/01/17 10:40:00;;;;;;;6.20;4.50;;;5.90;81.50;;;;;;6218573;23;20205;-83
2022/01/17 10:42:30;;;;;;;6.10;4.53;;;5.90;81.60;;;;;;6218319;23;20167;-84
2022/01/17 10:45:05;;;;;;;8.37;4.93;;;6.00;80.70;;;;;;6217846;23;20190;-84
2022/01/17 10:47:32;;;;;;;5.87;4.23;;;6.10;80.90;;;;;;6217936;23;20185;-83
2022/01/17 10:50:05;;;;;;;4.67;3.80;;;6.20;78.60;;;;;;6219603;23;20181;-84
2022/01/17 10:52:35;;;;;;;6.37;4.37;;;6.30;78.10;;;;;;6218265;23;20162;-84
2022/01/17 10:55:06;;;;;;;8.80;4.67;;;6.30;77.90;;;;;;6218226;23;20174;-85
2022/01/17 10:57:35;;;;;;;7.87;4.80;;;6.40;79.00;;;;;;6221408;23;20461;-83
2022/01/17 11:00:08;;;;;;;10.00;4.70;;;6.30;78.30;;;;;;6220241;23;20700;-84
2022/01/17 11:02:36;;;;;;;12.47;4.93;;;6.30;78.90;;;;;;6218554;23;20162;-85
2022/01/17 11:05:06;;;;;;;13.40;4.63;;;6.10;78.60;;;;;;6192430;23;20174;-84
2022/01/17 11:07:39;;;;;;;7.07;4.60;;;6.10;78.70;;;;;;6218988;23;20186;-85
2022/01/17 11:10:13;;;;;;;9.73;4.17;;;6.10;78.80;;;;;;6218444;23;20158;-85
2022/01/17 11:12:39;;;;;;;8.57;4.20;;;6.10;78.70;;;;;;6218442;23;20313;-84
2022/01/17 11:15:07;;;;;;;5.37;4.20;;;6.10;78.90;;;;;;6223747;23;20368;-85
2022/01/17 11:17:37;;;;;;;6.47;4.20;;;6.20;78.10;;;;;;6221139;23;20586;-84
2022/01/17 11:20:08;;;;;;;7.70;4.13;;;6.00;78.40;;;;;;6220410;23;20170;-85
2022/01/17 11:22:38;;;;;;;5.73;4.27;;;5.90;79.10;;;;;;6220679;23;20189;-81
2022/01/17 11:25:06;;;;;;;4.93;3.80;;;5.90;79.20;;;;;;6192757;23;20182;-83
2022/01/17 11:27:34;;;;;;;8.07;3.93;;;6.00;79.30;;;;;;6220458;23;20205;-85
2022/01/17 11:30:02;;;;;;;5.13;3.73;;;5.90;79.40;;;;;;6218935;23;20190;-82
2022/01/17 11:32:29;;;;;;;4.70;3.80;;;5.90;79.80;;;;;;6221980;23;20226;-82
2022/01/17 11:35:00;;;;;;;6.43;4.10;;;5.80;79.70;;;;;;6223121;23;20176;-84
2022/01/17 11:37:33;;;;;;;5.53;4.13;;;5.80;79.60;;;;;;6220190;23;20253;-82
2022/01/17 11:40:01;;;;;;;5.17;4.03;;;5.80;79.50;;;;;;6218259;23;20249;-82
2022/01/17 11:42:37;;;;;;;10.00;4.37;;;5.80;80.10;;;;;;6216666;23;20257;-87
2022/01/17 11:45:25;;;;;;;7.17;3.83;;;5.90;80.20;;;;;;6216663;23;20423;-85
2022/01/17 11:47:56;;;;;;;8.67;3.90;;;6.00;78.70;;;;;;6216049;23;20276;-85
2022/01/17 11:50:47;;;;;;;4.37;3.67;;;6.10;78.60;;;;;;6217566;23;20665;-82
2022/01/17 11:53:48;;;;;;;7.27;3.93;;;6.10;77.90;;;;;;6217790;23;20202;-86
2022/01/17 11:56:37;;;;;;;7.47;4.50;;;6.10;77.90;;;;;;6219165;23;20201;-85
2022/01/17 11:59:38;;;;;;;6.83;4.20;;;6.30;76.50;;;;;;6218224;23;20276;-82
2022/01/17 12:02:33;;;;;;;5.87;3.73;;;6.50;76.00;;;;;;6214499;23;20178;-84
2022/01/17 12:05:33;;;;;;;5.87;4.00;;;6.60;74.70;;;;;;6219298;23;20205;-82
2022/01/17 12:08:00;;;;;;;8.57;3.93;;;6.70;71.50;;;;;;6218825;23;20228;-83
2022/01/17 12:10:30;;;;;;;8.60;3.80;;;6.60;71.40;;;;;;6220102;23;20169;-83
2022/01/17 12:13:35;;;;;;;5.97;3.97;;;6.50;74.50;;;;;;6219006;23;20228;-85
2022/01/17 12:16:11;;;;;;;5.63;4.03;;;6.70;71.50;;;;;;6219991;23;20185;-82
2022/01/17 12:18:41;;;;;;;5.23;3.80;;;6.70;71.50;;;;;;6218485;23;20260;-84
2022/01/17 12:21:30;;;;;;;6.00;3.50;;;6.60;71.40;;;;;;6219942;23;20266;-82
2022/01/17 12:24:38;;;;;;;6.67;4.23;;;6.40;73.20;;;;;;6219149;23;20561;-84
2022/01/17 12:27:19;;;;;;;11.10;4.27;;;6.30;74.60;;;;;;6218749;23;20220;-85
2022/01/17 12:29:52;;;;;;;6.37;4.17;;;6.20;76.10;;;;;;6217542;23;20577;-82
2022/01/17 12:32:52;;;;;;;5.70;4.10;;;6.20;76.60;;;;;;6217172;23;20217;-83
2022/01/17 12:35:26;;;;;;;5.60;3.80;;;6.30;76.20;;;;;;6218072;23;20598;-82
2022/01/17 12:37:57;;;;;;;5.53;4.03;;;6.30;75.40;;;;;;6217303;23;20692;-82
2022/01/17 12:40:26;;;;;;;5.77;4.10;;;6.30;75.60;;;;;;6218810;23;20162;-82
2022/01/17 12:42:56;;;;;;;4.50;3.80;;;6.40;72.50;;;;;;6217060;23;20204;-83
2022/01/17 12:45:27;;;;;;;4.93;4.10;;;6.30;74.30;;;;;;6217618;23;20622;-82
2022/01/17 12:47:56;;;;;;;6.33;3.93;;;6.30;73.40;;;;;;6217235;23;20210;-84
2022/01/17 12:50:26;;;;;;;5.70;4.20;;;6.20;74.50;;;;;;6219852;23;20212;-82
2022/01/17 12:52:58;;;;;;;5.87;4.10;;;6.10;75.10;;;;;;6217743;23;20229;-85
2022/01/17 12:55:26;;;;;;;7.87;4.10;;;6.10;75.50;;;;;;6218858;23;20158;-89
2022/01/17 12:57:54;;;;;;;4.90;3.73;;;6.10;76.10;;;;;;6215865;23;20285;-84
2022/01/17 13:00:27;;;;;;;6.67;3.90;;;6.20;76.80;;;;;;6219339;23;20177;-82
2022/01/17 13:02:56;;;;;;;6.50;4.13;;;6.30;75.00;;;;;;6218983;23;20202;-83
2022/01/17 13:05:27;;;;;;;6.40;4.10;;;6.20;74.90;;;;;;6219004;23;20722;-85
2022/01/17 13:07:55;;;;;;;5.40;4.13;;;6.10;75.50;;;;;;6216848;23;20217;-83
2022/01/17 13:10:22;;;;;;;6.93;4.33;;;6.00;75.90;;;;;;6219188;23;20252;-84
2022/01/17 13:12:53;;;;;;;5.83;3.90;;;6.00;76.00;;;;;;6217315;23;20537;-86
2022/01/17 13:15:20;;;;;;;9.63;4.10;;;6.00;75.90;;;;;;6217389;23;20540;-82
2022/01/17 13:17:53;;;;;;;5.23;3.30;;;6.10;75.70;;;;;;6216311;23;20225;-85
2022/01/17 13:20:22;;;;;;;5.90;3.83;;;6.20;71.10;;;;;;6216154;23;20241;-85
2022/01/17 13:23:12;;;;;;;7.27;3.30;;;6.30;73.10;;;;;;6216271;23;20323;-83
2022/01/17 13:25:39;;;;;;;4.43;3.23;;;6.40;71.20;;;;;;6217193;23;20241;-83
2022/01/17 13:28:07;;;;;;;5.27;3.50;;;6.50;71.30;;;;;;6215231;23;20210;-83